Time;durP1;ratioP1;P1;durP2;ratioP2;P2;SDS_P1;SDS_P2;PMS_P1;PMS_P2;Temp;Humidity;BMP_temperature;BMP_pressure;BME280_temperature;BME280_humidity;BME280_pressure;Samples;Min_cycle;Max_cycle;Signal;HPM_P1;HPM_P2
2022/04/21 00:00:38;;;;;;;6.40;3.42;;;10.30;83.70;;;;;;4933377;29;20024;-72
2022/04/21 00:03:04;;;;;;;7.43;3.65;;;10.30;83.70;;;;;;4914672;29;20038;-72
2022/04/21 00:05:30;;;;;;;7.57;3.78;;;10.40;83.60;;;;;;4923547;29;20075;-72
2022/04/21 00:07:57;;;;;;;9.07;3.72;;;10.40;83.60;;;;;;4931558;29;20036;-71
2022/04/21 00:10:23;;;;;;;6.30;3.67;;;10.40;84.00;;;;;;4916424;29;20365;-71
2022/04/21 00:12:50;;;;;;;9.07;3.83;;;10.40;84.00;;;;;;4932653;29;20468;-71
2022/04/21 00:15:16;;;;;;;6.20;3.40;;;10.40;84.20;;;;;;4933963;29;20038;-72
2022/04/21 00:17:42;;;;;;;8.70;3.70;;;10.40;84.00;;;;;;4917483;29;20408;-71
2022/04/21 00:20:08;;;;;;;7.95;4.03;;;10.40;84.60;;;;;;4931893;29;20028;-72
2022/04/21 00:25:19;;;;;;;8.70;3.75;;;10.30;84.40;;;;;;4932950;29;20056;-71
2022/04/21 00:27:45;;;;;;;7.90;3.92;;;10.40;84.60;;;;;;4932643;29;20035;-72
2022/04/21 00:30:12;;;;;;;10.45;3.92;;;10.30;85.20;;;;;;4934032;29;20391;-71
2022/04/21 00:32:40;;;;;;;8.63;4.10;;;10.30;85.30;;;;;;4931852;29;20119;-72
2022/04/21 00:35:08;;;;;;;10.13;4.00;;;10.30;85.20;;;;;;4933682;29;20391;-72
2022/04/21 00:37:44;;;;;;;6.47;3.42;;;10.20;85.10;;;;;;4932512;29;20403;-73
2022/04/21 00:40:11;;;;;;;8.48;3.38;;;10.20;85.10;;;;;;4916601;29;20032;-72
2022/04/21 00:42:36;;;;;;;8.63;4.20;;;10.30;85.20;;;;;;4932384;29;20032;-72
2022/04/21 00:45:02;;;;;;;9.90;3.78;;;10.30;85.00;;;;;;4933069;29;20086;-72
2022/04/21 00:47:31;;;;;;;9.52;4.10;;;10.30;85.10;;;;;;4919334;29;20746;-72
2022/04/21 00:49:58;;;;;;;8.60;3.88;;;10.30;85.30;;;;;;4933540;29;20057;-72
2022/04/21 00:52:25;;;;;;;5.22;3.00;;;10.20;85.60;;;;;;4919018;29;20032;-72
2022/04/21 01:15:04;;;;;;;7.65;3.95;;;10.20;85.90;;;;;;4913375;29;20207;-72
2022/04/21 01:17:34;;;;;;;11.25;4.40;;;10.20;86.10;;;;;;4906543;29;20059;-72
2022/04/21 01:20:00;;;;;;;5.82;3.90;;;10.10;86.30;;;;;;4912273;29;20139;-73
2022/04/21 01:22:27;;;;;;;7.15;3.80;;;10.10;86.40;;;;;;4920503;29;20131;-72
2022/04/21 01:24:52;;;;;;;10.32;3.83;;;10.20;86.60;;;;;;4916079;29;20036;-72
2022/04/21 01:27:18;;;;;;;7.15;4.07;;;10.20;86.80;;;;;;4936737;29;20376;-72
2022/04/21 01:29:43;;;;;;;11.38;4.05;;;10.10;86.90;;;;;;4933059;29;20110;-72
2022/04/21 01:32:09;;;;;;;13.00;4.35;;;10.10;86.90;;;;;;4936286;29;20035;-72
2022/04/21 01:34:37;;;;;;;7.88;3.67;;;10.10;87.80;;;;;;4933910;29;20031;-72
2022/04/21 01:42:31;;;;;;;8.85;4.05;;;10.00;88.30;;;;;;4928806;29;20043;-73
2022/04/21 01:44:56;;;;;;;7.25;3.60;;;10.00;88.80;;;;;;4935154;29;20360;-72
2022/04/21 01:47:22;;;;;;;8.85;3.95;;;9.90;88.40;;;;;;4935401;29;20046;-71
2022/04/21 01:49:47;;;;;;;10.30;3.78;;;9.90;88.40;;;;;;4935773;29;20031;-71
2022/04/21 01:52:13;;;;;;;9.00;3.88;;;9.90;88.30;;;;;;4935070;29;20149;-72
2022/04/21 01:54:38;;;;;;;7.82;3.78;;;9.90;89.00;;;;;;4934920;29;20027;-72
2022/04/21 01:57:04;;;;;;;11.60;4.40;;;9.80;89.20;;;;;;4935008;29;20044;-71
2022/04/21 01:59:30;;;;;;;12.32;4.22;;;9.70;89.20;;;;;;4935926;29;20059;-72
2022/04/21 02:01:55;;;;;;;6.35;4.07;;;9.70;89.50;;;;;;4932946;29;20059;-72
2022/04/21 02:04:21;;;;;;;9.55;4.03;;;9.70;89.80;;;;;;4916791;29;20420;-72
2022/04/21 02:06:46;;;;;;;10.65;3.70;;;9.70;89.70;;;;;;4924159;29;20063;-73
2022/04/21 02:09:14;;;;;;;6.75;3.88;;;9.70;90.00;;;;;;4935081;29;20471;-72
2022/04/21 02:11:39;;;;;;;9.55;4.63;;;9.80;90.10;;;;;;4935676;29;20040;-73
2022/04/21 02:14:05;;;;;;;7.22;3.67;;;9.80;90.10;;;;;;4934383;29;20042;-72
2022/04/21 02:16:31;;;;;;;7.43;4.18;;;9.70;90.20;;;;;;4934743;29;20043;-71
2022/04/21 02:18:56;;;;;;;7.95;4.50;;;9.80;90.20;;;;;;4917158;29;20032;-72
2022/04/21 02:21:22;;;;;;;7.00;4.10;;;9.90;90.30;;;;;;4935906;29;20164;-72
2022/04/21 02:23:47;;;;;;;7.70;4.13;;;9.80;90.30;;;;;;4933484;29;20044;-72
2022/04/21 02:26:13;;;;;;;8.90;4.10;;;9.70;90.30;;;;;;4935675;29;20086;-73
2022/04/21 02:28:41;;;;;;;10.05;4.15;;;9.80;90.40;;;;;;4934213;29;20038;-72
2022/04/21 02:31:06;;;;;;;8.98;4.47;;;9.80;90.50;;;;;;4916506;29;20433;-73
2022/04/21 02:33:32;;;;;;;7.82;3.78;;;9.80;90.50;;;;;;4929837;29;20019;-73
2022/04/21 02:35:58;;;;;;;10.00;4.13;;;9.80;90.60;;;;;;4919962;29;20043;-74
2022/04/21 02:38:23;;;;;;;9.02;4.78;;;9.80;90.70;;;;;;4916704;29;20028;-73
2022/04/21 02:40:49;;;;;;;13.85;4.00;;;9.80;90.60;;;;;;4899406;29;20028;-73
2022/04/21 02:43:14;;;;;;;9.43;4.10;;;9.90;90.60;;;;;;4917632;29;20036;-73
2022/04/21 02:45:42;;;;;;;7.90;3.25;;;9.90;90.60;;;;;;4935607;29;20444;-73
2022/04/21 02:48:08;;;;;;;8.07;4.35;;;9.90;90.70;;;;;;4908129;29;20575;-73
2022/04/21 02:50:34;;;;;;;10.52;4.03;;;9.90;90.60;;;;;;4922773;29;20043;-73
2022/04/21 02:52:59;;;;;;;8.82;4.10;;;10.00;90.60;;;;;;4914155;29;20035;-73
2022/04/21 02:58:10;;;;;;;7.93;3.78;;;9.90;90.60;;;;;;4933803;29;20533;-73
2022/04/21 03:00:36;;;;;;;7.25;4.20;;;9.90;90.70;;;;;;4933253;29;20067;-73
2022/04/21 03:03:01;;;;;;;9.35;4.18;;;9.90;90.80;;;;;;4925110;29;20067;-73
2022/04/21 03:05:27;;;;;;;7.82;3.50;;;9.90;90.80;;;;;;4904394;29;20024;-73
2022/04/21 03:07:54;;;;;;;8.27;4.70;;;9.80;90.90;;;;;;4928152;29;20028;-73
2022/04/21 03:10:20;;;;;;;6.95;4.25;;;9.80;90.90;;;;;;4933659;29;20510;-73
2022/04/21 03:12:46;;;;;;;14.80;4.97;;;9.80;90.80;;;;;;4933275;29;20058;-73
2022/04/21 03:15:12;;;;;;;9.15;4.15;;;9.80;90.90;;;;;;4934121;29;20459;-74
2022/04/21 03:17:38;;;;;;;11.05;4.60;;;9.80;90.90;;;;;;4927430;29;20088;-74
2022/04/21 03:20:04;;;;;;;8.35;4.00;;;9.80;91.00;;;;;;4929662;29;20546;-74
2022/04/21 03:25:18;;;;;;;9.93;4.37;;;9.70;91.10;;;;;;4934523;29;20027;-73
2022/04/21 03:27:47;;;;;;;9.02;3.85;;;9.80;91.10;;;;;;4925292;29;20040;-72
2022/04/21 03:30:13;;;;;;;12.23;4.63;;;9.70;91.20;;;;;;4915101;29;20369;-73
2022/04/21 03:32:39;;;;;;;9.57;4.00;;;9.70;91.30;;;;;;4929058;29;20027;-72
2022/04/21 03:35:05;;;;;;;11.05;4.63;;;9.80;91.30;;;;;;4933071;29;20038;-73
2022/04/21 03:37:30;;;;;;;14.07;5.68;;;9.80;91.40;;;;;;4926776;29;20040;-72
2022/04/21 03:39:56;;;;;;;9.60;4.50;;;9.80;91.40;;;;;;4915054;29;20385;-72
2022/04/21 03:42:31;;;;;;;13.52;4.43;;;9.80;91.40;;;;;;4925535;29;20032;-72
2022/04/21 03:44:57;;;;;;;8.00;4.15;;;9.80;91.50;;;;;;4933824;29;20028;-72
2022/04/21 03:47:23;;;;;;;11.27;4.80;;;9.80;91.40;;;;;;4913630;29;20124;-73
2022/04/21 03:49:49;;;;;;;9.43;4.50;;;9.80;91.50;;;;;;4923232;29;20059;-71
2022/04/21 03:52:14;;;;;;;10.27;4.53;;;9.80;91.50;;;;;;4931509;29;20027;-72
2022/04/21 03:54:40;;;;;;;10.45;4.95;;;9.80;91.50;;;;;;4933524;29;20035;-72
2022/04/21 03:57:09;;;;;;;12.63;5.82;;;9.70;91.70;;;;;;4932942;29;20047;-72
2022/04/21 03:59:36;;;;;;;11.68;4.78;;;9.70;91.90;;;;;;4934101;29;20550;-72
2022/04/21 04:02:04;;;;;;;10.15;5.60;;;9.60;91.90;;;;;;4931587;29;20043;-73
2022/04/21 04:04:31;;;;;;;12.00;4.78;;;9.60;92.10;;;;;;4933796;29;20047;-72
2022/04/21 04:12:30;;;;;;;10.05;4.90;;;9.60;91.80;;;;;;4933316;29;19911;-73
2022/04/21 04:14:55;;;;;;;10.82;4.88;;;9.60;92.20;;;;;;4933393;29;20500;-73
2022/04/21 04:17:21;;;;;;;12.63;4.95;;;9.60;92.10;;;;;;4933192;29;20123;-73
2022/04/21 04:19:46;;;;;;;10.30;4.75;;;9.60;92.60;;;;;;4933394;29;20106;-72
2022/04/21 04:22:14;;;;;;;9.15;4.93;;;9.50;92.70;;;;;;4932319;29;20127;-72
2022/04/21 04:24:40;;;;;;;9.57;4.85;;;9.50;92.60;;;;;;4926063;29;20099;-72
2022/04/21 04:27:05;;;;;;;7.95;4.88;;;9.50;92.50;;;;;;4899086;29;20047;-71
2022/04/21 04:29:31;;;;;;;10.43;5.15;;;9.50;92.60;;;;;;4933061;29;20425;-71
2022/04/21 04:31:57;;;;;;;11.98;5.72;;;9.60;92.60;;;;;;4932440;29;20483;-71
2022/04/21 04:34:23;;;;;;;9.80;4.50;;;9.50;92.80;;;;;;4932946;29;20163;-72
2022/04/21 04:36:48;;;;;;;14.65;5.50;;;9.50;92.90;;;;;;4933173;29;20502;-72
2022/04/21 04:39:15;;;;;;;8.23;5.07;;;9.50;93.00;;;;;;4922587;29;20454;-71
2022/04/21 04:44:25;;;;;;;8.85;4.45;;;9.50;93.00;;;;;;4937231;29;20435;-72
2022/04/21 04:46:51;;;;;;;8.38;4.63;;;9.50;93.00;;;;;;4919268;29;20038;-72
2022/04/21 04:49:17;;;;;;;11.70;4.78;;;9.50;93.20;;;;;;4937184;29;20035;-72
2022/04/21 04:51:43;;;;;;;6.80;4.40;;;9.50;93.30;;;;;;4937042;29;20479;-73
2022/04/21 04:54:10;;;;;;;11.52;4.93;;;9.50;93.20;;;;;;4936175;29;20042;-73
2022/04/21 04:56:37;;;;;;;8.23;4.93;;;9.50;93.20;;;;;;4936170;29;20046;-72
2022/04/21 04:59:03;;;;;;;11.25;5.28;;;9.50;93.10;;;;;;4935620;29;20032;-70
2022/04/21 05:01:43;;;;;;;8.38;4.63;;;9.60;93.20;;;;;;4936634;29;20032;-71
2022/04/21 05:04:11;;;;;;;10.20;4.70;;;9.60;93.30;;;;;;4918496;29;20078;-71
2022/04/21 05:06:38;;;;;;;11.68;4.90;;;9.60;93.20;;;;;;4933772;29;20047;-71
2022/04/21 05:09:06;;;;;;;7.72;5.07;;;9.70;93.20;;;;;;4935498;29;20032;-73
2022/04/21 05:11:35;;;;;;;10.32;5.30;;;9.70;93.30;;;;;;4936503;29;20070;-73
2022/04/21 05:14:01;;;;;;;11.85;5.35;;;9.70;93.30;;;;;;4918080;29;20044;-73
2022/04/21 05:16:27;;;;;;;8.90;5.22;;;9.80;93.30;;;;;;4923598;29;20043;-72
2022/04/21 05:18:53;;;;;;;13.77;5.85;;;9.80;93.40;;;;;;4933152;29;20031;-72
2022/04/21 05:21:19;;;;;;;11.93;5.05;;;9.80;93.50;;;;;;4936676;29;20452;-72
2022/04/21 05:23:47;;;;;;;14.35;5.78;;;9.80;93.40;;;;;;4935152;29;20051;-73
2022/04/21 05:26:15;;;;;;;13.70;6.43;;;9.80;93.40;;;;;;4936463;29;20518;-73
2022/04/21 05:28:41;;;;;;;19.40;6.38;;;9.80;93.40;;;;;;4935624;29;20043;-72
2022/04/21 05:31:07;;;;;;;30.70;9.50;;;9.80;93.50;;;;;;4919133;29;20038;-72
2022/04/21 05:33:35;;;;;;;11.88;5.93;;;9.80;93.50;;;;;;4935142;29;20114;-73
2022/04/21 05:36:01;;;;;;;34.65;9.98;;;9.80;93.50;;;;;;4936483;29;20027;-73
2022/04/21 05:38:27;;;;;;;16.98;6.75;;;9.90;93.60;;;;;;4935237;29;20093;-73
2022/04/21 05:40:53;;;;;;;16.75;6.93;;;9.90;93.60;;;;;;4935619;29;20027;-68
2022/04/21 05:43:20;;;;;;;11.93;5.82;;;9.90;93.80;;;;;;4932108;29;20038;-70
2022/04/21 05:45:47;;;;;;;12.15;5.72;;;9.90;93.60;;;;;;4933482;29;20095;-67
2022/04/21 05:48:14;;;;;;;15.73;5.00;;;9.90;93.60;;;;;;4931705;29;20035;-68
2022/04/21 05:50:43;;;;;;;11.73;5.38;;;9.90;93.60;;;;;;4923115;29;20059;-69
2022/04/21 05:53:14;;;;;;;8.27;4.90;;;10.00;93.70;;;;;;4934127;29;20027;-70
2022/04/21 05:55:39;;;;;;;13.00;5.30;;;9.90;93.70;;;;;;4931073;29;20460;-69
2022/04/21 05:58:05;;;;;;;11.63;4.90;;;10.00;93.80;;;;;;4933661;29;20078;-68
2022/04/21 06:00:31;;;;;;;13.43;5.20;;;10.00;93.70;;;;;;4933721;29;20024;-69
2022/04/21 06:02:57;;;;;;;12.48;6.00;;;9.90;93.80;;;;;;4926426;29;20376;-68
2022/04/21 06:05:22;;;;;;;44.70;11.57;;;10.00;93.80;;;;;;4934701;29;20028;-69
2022/04/21 06:07:48;;;;;;;13.50;5.70;;;10.00;93.80;;;;;;4926948;29;20032;-69
2022/04/21 06:10:13;;;;;;;10.68;5.10;;;10.10;93.80;;;;;;4926958;29;20491;-69
2022/04/21 06:12:39;;;;;;;10.60;5.20;;;10.00;93.90;;;;;;4930416;29;20051;-69
2022/04/21 06:15:05;;;;;;;11.70;6.32;;;10.00;93.90;;;;;;4911845;29;20075;-69
2022/04/21 06:17:30;;;;;;;10.27;5.28;;;10.00;93.90;;;;;;4924042;29;20042;-69
2022/04/21 06:19:56;;;;;;;18.15;5.43;;;10.00;93.90;;;;;;4934092;29;20027;-69
2022/04/21 06:22:22;;;;;;;11.05;5.47;;;10.00;93.90;;;;;;4932950;29;20395;-69
2022/04/21 06:24:47;;;;;;;10.77;5.43;;;10.00;94.00;;;;;;4926974;29;20036;-68
2022/04/21 06:27:13;;;;;;;9.32;5.40;;;10.10;94.00;;;;;;4918964;29;20221;-70
2022/04/21 06:29:38;;;;;;;9.15;4.50;;;10.10;93.90;;;;;;4929165;29;20021;-69
2022/04/21 06:32:04;;;;;;;8.55;5.65;;;10.20;93.90;;;;;;4930776;29;20070;-68
2022/04/21 06:34:32;;;;;;;13.35;5.10;;;10.20;94.00;;;;;;4934375;29;20030;-69
2022/04/21 06:37:00;;;;;;;10.57;5.05;;;10.20;94.20;;;;;;4932547;29;20506;-69
2022/04/21 06:39:26;;;;;;;12.00;6.05;;;10.20;94.10;;;;;;4934036;29;20043;-69
2022/04/21 06:41:51;;;;;;;12.45;5.15;;;10.30;94.00;;;;;;4932295;29;20094;-68
2022/04/21 06:49:46;;;;;;;10.43;4.80;;;10.40;93.90;;;;;;4921310;29;20062;-69
2022/04/21 06:52:11;;;;;;;12.68;5.57;;;10.50;93.80;;;;;;4931075;29;20487;-69
2022/04/21 06:54:37;;;;;;;11.75;5.78;;;10.50;93.80;;;;;;4925451;29;20024;-69
2022/04/21 06:57:02;;;;;;;12.45;5.32;;;10.50;93.70;;;;;;4925351;29;20039;-69
2022/04/21 06:59:28;;;;;;;14.30;4.90;;;10.50;93.90;;;;;;4929974;29;20028;-70
2022/04/21 07:01:53;;;;;;;15.98;5.45;;;10.50;93.90;;;;;;4923460;29;20481;-69
2022/04/21 07:04:20;;;;;;;12.60;5.22;;;10.60;93.90;;;;;;4915686;29;20122;-69
2022/04/21 07:06:46;;;;;;;10.02;5.35;;;10.60;93.80;;;;;;4933577;29;20040;-69
2022/04/21 07:09:11;;;;;;;13.13;5.57;;;10.60;93.80;;;;;;4932154;29;20407;-70
2022/04/21 07:11:40;;;;;;;10.15;5.10;;;10.60;93.70;;;;;;4933205;29;20019;-68
2022/04/21 07:14:06;;;;;;;10.82;5.30;;;10.70;93.70;;;;;;4900047;29;20024;-67
2022/04/21 07:16:32;;;;;;;11.43;5.35;;;10.70;93.80;;;;;;4932510;29;20502;-68
2022/04/21 07:18:57;;;;;;;10.68;5.40;;;10.70;93.70;;;;;;4917960;29;20392;-68
2022/04/21 07:21:23;;;;;;;7.97;5.00;;;10.70;93.70;;;;;;4932364;29;20028;-68
2022/04/21 07:23:49;;;;;;;12.35;5.82;;;10.70;93.60;;;;;;4930816;29;20135;-68
2022/04/21 07:26:15;;;;;;;9.32;5.50;;;10.70;93.70;;;;;;4928597;29;20032;-67
2022/04/21 07:28:42;;;;;;;10.95;5.40;;;10.70;93.60;;;;;;4931791;29;20391;-67
2022/04/21 07:31:07;;;;;;;10.60;5.05;;;10.70;93.60;;;;;;4932865;29;20036;-68
2022/04/21 07:33:33;;;;;;;11.30;4.78;;;10.80;93.60;;;;;;4918047;29;20088;-68
2022/04/21 07:35:58;;;;;;;9.57;5.55;;;10.90;93.60;;;;;;4931490;29;20019;-68
2022/04/21 07:38:24;;;;;;;10.70;5.32;;;10.90;93.50;;;;;;4920987;29;20456;-68
2022/04/21 07:40:53;;;;;;;8.70;4.70;;;10.80;93.50;;;;;;4929569;29;20028;-68
2022/04/21 07:43:19;;;;;;;12.48;5.68;;;10.80;93.70;;;;;;4926044;29;20031;-68
2022/04/21 07:45:45;;;;;;;11.52;5.20;;;10.70;93.70;;;;;;4933089;29;20099;-69
2022/04/21 07:48:10;;;;;;;10.90;5.75;;;10.70;93.80;;;;;;4931043;29;20106;-68
2022/04/21 07:50:36;;;;;;;9.25;5.75;;;10.70;93.90;;;;;;4932474;29;20028;-69
2022/04/21 07:53:14;;;;;;;9.85;5.32;;;10.70;93.90;;;;;;4931945;29;20051;-70
2022/04/21 07:55:48;;;;;;;11.07;5.70;;;10.80;94.00;;;;;;4931226;29;20467;-67
2022/04/21 07:58:14;;;;;;;11.33;5.70;;;10.80;93.90;;;;;;4921386;29;20154;-68
2022/04/21 08:00:40;;;;;;;11.80;5.68;;;10.90;93.90;;;;;;4926760;29;20028;-68
2022/04/21 08:03:07;;;;;;;13.25;5.35;;;10.90;93.80;;;;;;4925887;29;20068;-68
2022/04/21 08:05:33;;;;;;;8.90;5.20;;;10.90;93.70;;;;;;4916105;29;20059;-68
2022/04/21 08:07:59;;;;;;;13.25;6.32;;;10.90;93.70;;;;;;4932438;29;20094;-68
2022/04/21 08:10:29;;;;;;;11.35;5.20;;;10.90;93.70;;;;;;4932270;29;20479;-68
2022/04/21 08:12:59;;;;;;;11.40;5.55;;;10.90;93.80;;;;;;4930692;29;20039;-68
2022/04/21 08:15:33;;;;;;;10.82;5.93;;;10.90;93.90;;;;;;4929614;29;20083;-68
2022/04/21 08:18:01;;;;;;;9.40;5.45;;;10.90;93.90;;;;;;4925718;29;20491;-68
2022/04/21 08:20:28;;;;;;;9.85;6.22;;;10.90;93.90;;;;;;4942430;29;20035;-68
2022/04/21 08:22:54;;;;;;;8.07;5.90;;;10.90;93.90;;;;;;4914466;29;203926;-67
2022/04/21 08:33:33;;;;;;;9.90;6.15;;;11.20;94.60;;;;;;4935167;29;20476;-68
2022/04/21 08:35:59;;;;;;;12.88;6.78;;;11.10;94.60;;;;;;4937000;29;20031;-68
2022/04/21 08:38:28;;;;;;;12.00;6.50;;;11.10;94.80;;;;;;4933431;29;20039;-67
2022/04/21 08:40:58;;;;;;;11.93;6.28;;;11.20;95.00;;;;;;4900730;29;20032;-67
2022/04/21 08:43:27;;;;;;;11.75;5.88;;;11.20;95.10;;;;;;4927454;29;20066;-67
2022/04/21 08:45:53;;;;;;;11.27;6.38;;;11.40;95.20;;;;;;4917724;29;20025;-68
2022/04/21 08:48:21;;;;;;;16.50;6.75;;;11.40;95.20;;;;;;4927930;29;20375;-68
2022/04/21 08:50:47;;;;;;;11.23;6.00;;;11.50;95.10;;;;;;4931242;29;20035;-68
2022/04/21 08:53:21;;;;;;;10.02;5.55;;;11.50;95.00;;;;;;4930353;29;20075;-68
2022/04/21 08:55:48;;;;;;;13.63;6.20;;;11.50;95.00;;;;;;4922309;29;20023;-67
2022/04/21 08:58:14;;;;;;;13.07;6.63;;;11.60;94.90;;;;;;4932905;29;20067;-68
2022/04/21 09:00:42;;;;;;;10.32;6.10;;;11.70;94.90;;;;;;4935350;29;20044;-68
2022/04/21 09:03:08;;;;;;;10.27;7.10;;;11.80;94.90;;;;;;4926275;29;20071;-68
2022/04/21 09:05:34;;;;;;;15.00;7.13;;;11.80;94.90;;;;;;4934040;29;20079;-69
2022/04/21 09:08:00;;;;;;;13.10;8.05;;;11.80;94.80;;;;;;4931135;29;20028;-68
2022/04/21 09:10:32;;;;;;;13.43;7.32;;;11.90;94.90;;;;;;4923115;29;20035;-68
2022/04/21 09:13:00;;;;;;;14.00;8.05;;;11.80;94.90;;;;;;4916837;29;20472;-68
2022/04/21 09:15:33;;;;;;;11.93;6.80;;;11.90;94.90;;;;;;4935155;29;20066;-68
2022/04/21 09:18:08;;;;;;;11.90;6.78;;;11.90;94.90;;;;;;4921689;29;20311;-68
2022/04/21 09:20:35;;;;;;;9.90;6.20;;;12.10;94.70;;;;;;4923591;29;20507;-68
2022/04/21 09:23:06;;;;;;;12.50;5.95;;;12.20;94.60;;;;;;4932301;29;20056;-69
2022/04/21 09:25:47;;;;;;;13.00;6.53;;;12.30;94.50;;;;;;4934044;29;20035;-67
2022/04/21 09:28:25;;;;;;;11.95;6.32;;;12.40;94.30;;;;;;4934772;29;20142;-69
2022/04/21 09:30:52;;;;;;;11.55;5.97;;;12.30;94.20;;;;;;4934421;29;20086;-67
2022/04/21 09:33:28;;;;;;;10.60;6.28;;;12.30;94.20;;;;;;4928996;29;20028;-68
2022/04/21 09:35:58;;;;;;;11.55;6.82;;;12.40;94.10;;;;;;4934499;29;20032;-68
2022/04/21 09:38:24;;;;;;;11.70;7.25;;;12.30;94.10;;;;;;4928331;29;20108;-68
2022/04/21 09:40:50;;;;;;;9.55;6.53;;;12.30;94.10;;;;;;4929990;29;20028;-67
2022/04/21 09:43:26;;;;;;;12.65;6.78;;;12.40;94.20;;;;;;4929671;29;20562;-67
2022/04/21 09:46:07;;;;;;;13.35;7.82;;;12.30;94.10;;;;;;4933327;29;20019;-67
2022/04/21 09:48:33;;;;;;;12.88;6.60;;;12.40;94.10;;;;;;4934757;29;20119;-66
2022/04/21 09:51:16;;;;;;;10.93;6.47;;;12.40;94.20;;;;;;4933684;29;20106;-67
2022/04/21 09:53:55;;;;;;;11.32;6.65;;;12.40;94.20;;;;;;4933955;29;20087;-68
2022/04/21 09:56:34;;;;;;;13.25;7.53;;;12.60;94.10;;;;;;4916849;29;20119;-68
2022/04/21 09:59:07;;;;;;;15.65;8.18;;;12.70;94.00;;;;;;4934298;29;20039;-68
2022/04/21 10:01:35;;;;;;;15.45;9.07;;;12.70;93.80;;;;;;4927359;29;20036;-68
2022/04/21 10:04:05;;;;;;;16.40;8.43;;;12.70;93.70;;;;;;4933059;29;20047;-67
2022/04/21 10:06:31;;;;;;;12.45;7.85;;;12.70;93.70;;;;;;4935363;29;20027;-67
2022/04/21 10:08:57;;;;;;;11.27;7.75;;;12.60;93.60;;;;;;4930325;29;20499;-67
2022/04/21 10:11:27;;;;;;;14.88;8.75;;;12.60;93.80;;;;;;4934400;29;20072;-68
2022/04/21 10:13:54;;;;;;;11.90;8.40;;;12.60;93.80;;;;;;4933970;29;20028;-68
2022/04/21 10:16:23;;;;;;;13.55;8.65;;;12.60;93.70;;;;;;4934723;29;20509;-68
2022/04/21 10:18:52;;;;;;;16.08;8.75;;;12.60;93.70;;;;;;4928426;29;20035;-68
2022/04/21 10:21:25;;;;;;;14.98;9.13;;;12.60;93.80;;;;;;4934520;29;20101;-68
2022/04/21 10:23:51;;;;;;;13.50;8.13;;;12.50;93.80;;;;;;4934632;29;20059;-67
2022/04/21 10:26:37;;;;;;;12.57;8.02;;;12.50;93.80;;;;;;4934606;29;20024;-67
2022/04/21 10:29:17;;;;;;;16.98;9.35;;;12.40;93.80;;;;;;4934936;29;20038;-68
2022/04/21 10:32:10;;;;;;;15.32;8.43;;;12.40;93.90;;;;;;4932672;29;20114;-68
2022/04/21 10:34:42;;;;;;;13.00;8.85;;;12.40;93.90;;;;;;4916151;29;20027;-68
2022/04/21 10:37:15;;;;;;;14.52;8.98;;;12.40;94.00;;;;;;4931685;29;20047;-67
2022/04/21 10:40:07;;;;;;;14.43;9.15;;;12.40;93.90;;;;;;4916973;29;20181;-70
2022/04/21 10:43:03;;;;;;;10.95;8.50;;;12.50;94.00;;;;;;4919905;29;20034;-67
2022/04/21 10:45:34;;;;;;;14.30;8.93;;;12.50;93.90;;;;;;4922419;29;20059;-69
2022/04/21 10:48:06;;;;;;;13.93;9.02;;;12.50;94.20;;;;;;4931829;29;20150;-68
2022/04/21 10:50:34;;;;;;;13.27;8.45;;;12.60;93.90;;;;;;4930145;29;20118;-68
2022/04/21 10:58:34;;;;;;;12.27;8.17;;;12.90;93.60;;;;;;4932227;29;20860;-68
2022/04/21 11:01:17;;;;;;;10.82;7.95;;;12.90;93.50;;;;;;4922281;29;20272;-68
2022/04/21 11:03:45;;;;;;;15.00;8.15;;;12.90;93.50;;;;;;4928855;29;20063;-68
2022/04/21 11:06:13;;;;;;;15.68;8.75;;;13.00;93.50;;;;;;4933283;29;20027;-68
2022/04/21 11:08:38;;;;;;;12.57;7.93;;;13.20;93.40;;;;;;4928714;29;20031;-67
2022/04/21 11:11:05;;;;;;;12.18;7.55;;;13.20;93.30;;;;;;4933686;29;20050;-68
2022/04/21 11:13:42;;;;;;;10.60;7.53;;;13.30;93.20;;;;;;4932934;29;20110;-67
2022/04/21 11:16:11;;;;;;;12.23;8.57;;;13.50;93.10;;;;;;4931641;29;22123;-67
2022/04/21 11:18:39;;;;;;;14.35;7.88;;;13.70;93.00;;;;;;4930633;29;20267;-67
2022/04/21 11:21:22;;;;;;;13.07;7.60;;;13.90;92.80;;;;;;4933431;29;20111;-67
2022/04/21 11:24:06;;;;;;;13.00;8.10;;;14.00;92.20;;;;;;4931741;29;20055;-67
2022/04/21 11:26:31;;;;;;;10.27;7.00;;;14.00;92.00;;;;;;4931256;29;20032;-68
2022/04/21 11:29:02;;;;;;;9.27;7.07;;;14.10;92.10;;;;;;4925306;29;20027;-68
2022/04/21 11:31:28;;;;;;;9.55;7.43;;;14.10;92.10;;;;;;4933788;29;20038;-68
2022/04/21 11:34:00;;;;;;;11.93;7.38;;;14.30;92.00;;;;;;4931975;29;20035;-68
2022/04/21 11:36:37;;;;;;;10.63;6.97;;;14.40;91.90;;;;;;4916650;29;20057;-68
2022/04/21 11:39:13;;;;;;;9.43;6.57;;;14.60;91.60;;;;;;4923436;29;20047;-68
2022/04/21 11:41:44;;;;;;;10.48;6.72;;;14.60;91.50;;;;;;4933950;29;20040;-68
2022/04/21 11:44:10;;;;;;;11.60;6.65;;;14.70;91.40;;;;;;4931471;29;20035;-67
2022/04/21 11:46:39;;;;;;;12.98;7.43;;;14.80;91.20;;;;;;4933869;29;20130;-68
2022/04/21 11:49:07;;;;;;;11.68;7.50;;;14.70;91.10;;;;;;4930982;29;20028;-68
2022/04/21 11:51:32;;;;;;;8.77;5.93;;;14.70;91.00;;;;;;4916466;29;20483;-67
2022/04/21 11:54:05;;;;;;;10.07;6.10;;;14.70;91.00;;;;;;4930863;29;20082;-67
2022/04/21 11:56:31;;;;;;;10.38;6.13;;;14.60;90.80;;;;;;4932614;29;20028;-68
2022/04/21 11:59:03;;;;;;;10.35;6.15;;;14.40;90.80;;;;;;4931684;29;20616;-68
2022/04/21 12:06:58;;;;;;;9.60;6.03;;;14.30;91.10;;;;;;4915687;29;20190;-68
2022/04/21 12:09:26;;;;;;;9.10;6.53;;;14.20;91.30;;;;;;4921871;29;20043;-68
2022/04/21 12:11:57;;;;;;;9.57;6.63;;;14.20;91.40;;;;;;4932423;29;20431;-67
2022/04/21 12:14:23;;;;;;;9.48;6.75;;;14.20;91.50;;;;;;4918746;29;20111;-68
2022/04/21 12:16:53;;;;;;;11.43;6.13;;;14.20;91.50;;;;;;4931955;29;20044;-68
2022/04/21 12:19:38;;;;;;;8.45;6.30;;;14.20;91.40;;;;;;4933304;29;20031;-68
2022/04/21 12:22:08;;;;;;;8.60;6.03;;;14.20;91.40;;;;;;4930085;29;20056;-67
2022/04/21 12:24:37;;;;;;;11.43;6.07;;;14.20;91.50;;;;;;4923937;29;20091;-68
2022/04/21 12:27:05;;;;;;;9.52;6.63;;;14.30;91.50;;;;;;4930647;29;20526;-67
2022/04/21 12:29:44;;;;;;;9.57;6.68;;;14.30;91.40;;;;;;4930916;29;20094;-67
2022/04/21 12:32:09;;;;;;;10.48;5.70;;;14.20;91.50;;;;;;4927505;29;20047;-67
2022/04/21 12:34:39;;;;;;;9.30;5.93;;;14.20;91.50;;;;;;4922494;29;20594;-66
2022/04/21 12:37:06;;;;;;;6.57;5.65;;;14.30;91.50;;;;;;4916464;29;20044;-66
2022/04/21 12:39:32;;;;;;;7.72;5.45;;;14.30;91.50;;;;;;4932884;29;20399;-67
2022/04/21 12:41:58;;;;;;;8.70;5.85;;;14.40;91.50;;;;;;4927200;29;20104;-67
2022/04/21 12:44:25;;;;;;;8.73;5.40;;;14.40;91.50;;;;;;4929448;29;20083;-68
2022/04/21 12:46:58;;;;;;;8.23;5.53;;;14.40;91.40;;;;;;4931024;29;20031;-68
2022/04/21 12:49:44;;;;;;;8.43;5.25;;;14.40;91.40;;;;;;4914608;29;20039;-67
2022/04/21 12:52:10;;;;;;;8.25;6.20;;;14.40;91.30;;;;;;4916524;29;20028;-67
2022/04/21 12:54:36;;;;;;;7.25;5.00;;;14.40;91.40;;;;;;4933676;29;20502;-68
2022/04/21 12:57:01;;;;;;;7.55;5.47;;;14.40;91.30;;;;;;4921941;29;20027;-67
2022/04/21 12:59:27;;;;;;;6.95;5.63;;;14.40;91.30;;;;;;4926161;29;20040;-67
2022/04/21 13:01:52;;;;;;;7.50;5.55;;;14.30;91.40;;;;;;4933617;29;20031;-68
2022/04/21 13:04:17;;;;;;;7.32;5.70;;;14.30;91.40;;;;;;4935633;29;20115;-70
2022/04/21 13:06:44;;;;;;;10.05;5.90;;;14.30;91.50;;;;;;4936505;29;20051;-67
2022/04/21 13:09:09;;;;;;;7.20;5.25;;;14.10;91.80;;;;;;4934341;29;20020;-69
2022/04/21 13:11:35;;;;;;;6.40;5.13;;;14.10;92.00;;;;;;4936777;29;20356;-67
2022/04/21 13:14:00;;;;;;;7.78;5.55;;;14.00;92.20;;;;;;4923726;29;20092;-67
2022/04/21 13:16:26;;;;;;;7.13;5.60;;;13.90;92.40;;;;;;4927276;29;20023;-66
2022/04/21 13:18:51;;;;;;;6.18;4.57;;;13.80;92.40;;;;;;4914002;29;20428;-67
2022/04/21 13:24:01;;;;;;;8.43;5.03;;;13.80;92.50;;;;;;4930535;29;20152;-67
2022/04/21 13:26:28;;;;;;;8.93;5.30;;;13.80;92.50;;;;;;4920750;29;20023;-67
2022/04/21 13:28:58;;;;;;;8.23;5.47;;;13.80;92.40;;;;;;4934782;29;20486;-67
2022/04/21 13:34:09;;;;;;;9.30;5.40;;;13.70;92.50;;;;;;4935445;29;20036;-66
2022/04/21 13:36:37;;;;;;;7.40;4.93;;;13.70;92.50;;;;;;4935634;29;20414;-67
2022/04/21 13:39:03;;;;;;;8.75;5.18;;;13.80;92.60;;;;;;4936046;29;20039;-66
2022/04/21 13:41:29;;;;;;;11.68;5.97;;;13.70;92.70;;;;;;4935345;29;20030;-67
2022/04/21 13:43:54;;;;;;;10.23;6.18;;;13.70;92.70;;;;;;4934114;29;20051;-67
2022/04/21 13:46:20;;;;;;;11.15;6.40;;;13.70;92.80;;;;;;4917010;29;20418;-67
2022/04/21 13:48:45;;;;;;;8.45;5.80;;;13.70;92.80;;;;;;4934910;29;20032;-67
2022/04/21 13:51:10;;;;;;;9.52;6.03;;;13.70;92.90;;;;;;4936175;29;20439;-67
2022/04/21 13:53:36;;;;;;;8.70;6.28;;;13.70;93.10;;;;;;4918148;29;20166;-67
2022/04/21 13:56:06;;;;;;;9.77;6.22;;;13.70;93.10;;;;;;4935473;29;20035;-67
2022/04/21 13:58:31;;;;;;;10.35;6.68;;;13.70;93.30;;;;;;4933546;29;20400;-67